48°F Temp
46°F Dewpoint
94% Humidity
Temperature
9 MPH
14 KM/H
8 KTS
270°
Due West

Wind Speed
Clear
Conditions
Pressure 1016.3 (hPa) - 30.01 (in)
Visibility 10.0 (mi) - 16.1 (km)

Current Conditions
KMYR
Location Myrtle Beach International 2(mi)
Metar :KMYR 161056Z 27008KT 10SM CLR 09/08 A3001 RMK AO2 SLP163 T00940078
Sun 16th December 05:56 am

Airport
  Metar Aviation API Data Provided by https://www.checkwx.com/ PHP scripts by weather34.com ©2018